sensor_id;sensor_type;location;lat;lon;timestamp;pressure;altitude;pressure_sealevel;temperature;humidity
22930;BME280;11630;42.660;23.292;2022-09-09T00:01:54;69668.06;;;19.25;100.00
22930;BME280;11630;42.660;23.292;2022-09-09T00:09:43;69648.58;;;19.14;100.00
22930;BME280;11630;42.660;23.292;2022-09-09T00:12:18;69651.87;;;19.14;100.00
22930;BME280;11630;42.660;23.292;2022-09-09T00:14:54;69654.63;;;19.14;100.00
22930;BME280;11630;42.660;23.292;2022-09-09T00:22:57;69628.84;;;18.93;100.00
22930;BME280;11630;42.660;23.292;2022-09-09T00:25:34;69619.25;;;18.86;100.00
22930;BME280;11630;42.660;23.292;2022-09-09T00:28:04;69617.02;;;18.89;100.00
22930;BME280;11630;42.660;23.292;2022-09-09T00:30:35;69634.66;;;18.87;100.00
22930;BME280;11630;42.660;23.292;2022-09-09T00:33:11;69631.88;;;18.90;100.00
22930;BME280;11630;42.660;23.292;2022-09-09T00:35:59;69622.82;;;18.85;100.00
22930;BME280;11630;42.660;23.292;2022-09-09T00:38:49;69622.27;;;18.87;100.00
22930;BME280;11630;42.660;23.292;2022-09-09T00:41:34;69629.67;;;18.93;100.00
22930;BME280;11630;42.660;23.292;2022-09-09T00:44:03;69622.80;;;18.88;100.00
22930;BME280;11630;42.660;23.292;2022-09-09T00:46:41;69622.02;;;18.83;100.00
22930;BME280;11630;42.660;23.292;2022-09-09T00:49:20;69618.45;;;18.81;100.00
22930;BME280;11630;42.660;23.292;2022-09-09T00:54:53;69605.86;;;18.67;100.00
22930;BME280;11630;42.660;23.292;2022-09-09T00:57:34;69585.53;;;18.59;100.00
22930;BME280;11630;42.660;23.292;2022-09-09T01:05:36;69603.91;;;18.72;100.00
22930;BME280;11630;42.660;23.292;2022-09-09T01:08:09;69577.05;;;18.48;100.00
22930;BME280;11630;42.660;23.292;2022-09-09T01:10:48;69585.30;;;18.53;100.00
22930;BME280;11630;42.660;23.292;2022-09-09T01:13:31;69592.14;;;18.57;100.00
22930;BME280;11630;42.660;23.292;2022-09-09T01:16:03;69560.10;;;18.30;100.00
22930;BME280;11630;42.660;23.292;2022-09-09T01:18:45;69560.91;;;18.34;100.00
22930;BME280;11630;42.660;23.292;2022-09-09T01:21:28;69565.30;;;18.36;100.00
22930;BME280;11630;42.660;23.292;2022-09-09T01:26:48;69546.94;;;18.15;100.00
22930;BME280;11630;42.660;23.292;2022-09-09T01:29:19;69545.84;;;18.22;100.00
22930;BME280;11630;42.660;23.292;2022-09-09T01:32:00;69559.25;;;18.33;100.00
22930;BME280;11630;42.660;23.292;2022-09-09T01:34:36;69573.52;;;18.41;100.00
22930;BME280;11630;42.660;23.292;2022-09-09T01:37:07;69582.03;;;18.45;100.00
22930;BME280;11630;42.660;23.292;2022-09-09T01:39:39;69571.85;;;18.47;100.00
22930;BME280;11630;42.660;23.292;2022-09-09T01:42:11;69564.76;;;18.35;100.00
22930;BME280;11630;42.660;23.292;2022-09-09T01:44:44;69577.92;;;18.40;100.00
22930;BME280;11630;42.660;23.292;2022-09-09T01:47:16;69559.80;;;18.36;100.00
22930;BME280;11630;42.660;23.292;2022-09-09T01:49:47;69556.80;;;18.32;100.00
22930;BME280;11630;42.660;23.292;2022-09-09T01:52:18;69543.38;;;18.16;100.00
22930;BME280;11630;42.660;23.292;2022-09-09T01:54:49;69551.03;;;18.28;100.00
22930;BME280;11630;42.660;23.292;2022-09-09T01:57:27;69562.58;;;18.31;100.00
22930;BME280;11630;42.660;23.292;2022-09-09T02:00:08;69560.09;;;18.32;100.00
22930;BME280;11630;42.660;23.292;2022-09-09T02:05:52;69573.01;;;18.35;100.00
22930;BME280;11630;42.660;23.292;2022-09-09T02:08:29;69559.28;;;18.28;100.00
22930;BME280;11630;42.660;23.292;2022-09-09T02:11:05;69552.16;;;18.24;100.00
22930;BME280;11630;42.660;23.292;2022-09-09T02:13:37;69554.34;;;18.26;100.00
22930;BME280;11630;42.660;23.292;2022-09-09T02:16:12;69547.77;;;18.17;100.00
22930;BME280;11630;42.660;23.292;2022-09-09T02:18:47;69542.28;;;18.15;100.00
22930;BME280;11630;42.660;23.292;2022-09-09T02:21:17;69539.83;;;18.06;100.00
22930;BME280;11630;42.660;23.292;2022-09-09T02:23:51;69524.45;;;18.05;100.00
22930;BME280;11630;42.660;23.292;2022-09-09T02:26:23;69486.95;;;17.72;100.00
22930;BME280;11630;42.660;23.292;2022-09-09T02:28:56;69489.43;;;17.73;100.00
22930;BME280;11630;42.660;23.292;2022-09-09T02:31:27;69511.06;;;17.86;100.00
22930;BME280;11630;42.660;23.292;2022-09-09T02:34:01;69528.84;;;18.04;100.00
22930;BME280;11630;42.660;23.292;2022-09-09T02:36:36;69520.63;;;17.99;100.00
22930;BME280;11630;42.660;23.292;2022-09-09T02:39:10;69526.41;;;17.98;100.00
22930;BME280;11630;42.660;23.292;2022-09-09T02:41:41;69510.75;;;17.97;100.00
22930;BME280;11630;42.660;23.292;2022-09-09T02:44:14;69529.71;;;17.98;100.00
22930;BME280;11630;42.660;23.292;2022-09-09T02:46:53;69526.94;;;18.03;100.00
22930;BME280;11630;42.660;23.292;2022-09-09T02:52:05;69525.58;;;17.96;100.00
22930;BME280;11630;42.660;23.292;2022-09-09T02:54:35;69528.57;;;18.05;100.00
22930;BME280;11630;42.660;23.292;2022-09-09T02:59:46;69550.51;;;18.25;100.00
22930;BME280;11630;42.660;23.292;2022-09-09T03:02:16;69560.08;;;18.35;100.00
22930;BME280;11630;42.660;23.292;2022-09-09T03:04:47;69558.70;;;18.35;100.00
22930;BME280;11630;42.660;23.292;2022-09-09T03:07:20;69555.44;;;18.27;100.00
22930;BME280;11630;42.660;23.292;2022-09-09T03:09:51;69566.99;;;18.27;100.00
22930;BME280;11630;42.660;23.292;2022-09-09T03:12:23;69549.69;;;18.15;100.00
22930;BME280;11630;42.660;23.292;2022-09-09T03:14:53;69545.55;;;18.18;100.00
22930;BME280;11630;42.660;23.292;2022-09-09T03:17:24;69553.81;;;18.23;100.00
22930;BME280;11630;42.660;23.292;2022-09-09T03:19:54;69546.65;;;18.19;100.00
22930;BME280;11630;42.660;23.292;2022-09-09T03:22:25;69537.61;;;18.12;100.00
22930;BME280;11630;42.660;23.292;2022-09-09T03:24:57;69539.25;;;18.16;100.00
22930;BME280;11630;42.660;23.292;2022-09-09T03:27:29;69541.73;;;18.12;100.00
22930;BME280;11630;42.660;23.292;2022-09-09T03:29:59;69541.45;;;18.13;100.00
22930;BME280;11630;42.660;23.292;2022-09-09T03:32:31;69518.44;;;17.97;100.00
22930;BME280;11630;42.660;23.292;2022-09-09T03:35:01;69526.92;;;18.06;100.00
22930;BME280;11630;42.660;23.292;2022-09-09T03:37:31;69525.85;;;18.00;100.00
22930;BME280;11630;42.660;23.292;2022-09-09T03:40:02;69532.16;;;17.99;100.00
22930;BME280;11630;42.660;23.292;2022-09-09T03:42:33;69513.55;;;17.85;100.00
22930;BME280;11630;42.660;23.292;2022-09-09T03:45:05;69521.48;;;17.91;100.00
22930;BME280;11630;42.660;23.292;2022-09-09T03:47:36;69515.74;;;17.87;100.00
22930;BME280;11630;42.660;23.292;2022-09-09T03:50:09;69511.31;;;17.93;100.00
22930;BME280;11630;42.660;23.292;2022-09-09T03:52:41;69521.19;;;17.97;100.00
22930;BME280;11630;42.660;23.292;2022-09-09T03:55:10;69522.00;;;17.99;100.00
22930;BME280;11630;42.660;23.292;2022-09-09T03:57:41;69511.88;;;17.91;100.00
22930;BME280;11630;42.660;23.292;2022-09-09T04:00:13;69507.75;;;17.91;100.00
22930;BME280;11630;42.660;23.292;2022-09-09T04:02:44;69499.30;;;17.74;100.00
22930;BME280;11630;42.660;23.292;2022-09-09T04:05:15;69501.77;;;17.78;100.00
22930;BME280;11630;42.660;23.292;2022-09-09T04:07:46;69498.75;;;17.74;100.00
22930;BME280;11630;42.660;23.292;2022-09-09T04:10:16;69500.94;;;17.76;100.00
22930;BME280;11630;42.660;23.292;2022-09-09T04:12:48;69496.30;;;17.68;100.00
22930;BME280;11630;42.660;23.292;2022-09-09T04:15:19;69491.91;;;17.69;100.00
22930;BME280;11630;42.660;23.292;2022-09-09T04:17:50;69480.13;;;17.62;100.00
22930;BME280;11630;42.660;23.292;2022-09-09T04:20:20;69497.13;;;17.70;100.00
22930;BME280;11630;42.660;23.292;2022-09-09T04:22:51;69509.16;;;17.81;100.00
22930;BME280;11630;42.660;23.292;2022-09-09T04:25:25;69495.70;;;17.77;100.00
22930;BME280;11630;42.660;23.292;2022-09-09T04:27:56;69505.58;;;17.84;100.00
22930;BME280;11630;42.660;23.292;2022-09-09T04:30:27;69518.48;;;17.89;100.00
22930;BME280;11630;42.660;23.292;2022-09-09T04:32:57;69521.47;;;17.98;100.00
22930;BME280;11630;42.660;23.292;2022-09-09T04:35:28;69520.09;;;17.96;100.00
22930;BME280;11630;42.660;23.292;2022-09-09T04:37:59;69519.27;;;17.96;100.00
22930;BME280;11630;42.660;23.292;2022-09-09T04:40:31;69524.46;;;18.02;100.00
22930;BME280;11630;42.660;23.292;2022-09-09T04:43:02;69531.07;;;18.01;100.00
22930;BME280;11630;42.660;23.292;2022-09-09T04:45:33;69472.73;;;17.54;100.00
22930;BME280;11630;42.660;23.292;2022-09-09T04:48:04;69480.69;;;17.58;100.00
22930;BME280;11630;42.660;23.292;2022-09-09T04:50:35;69489.95;;;17.76;100.00
22930;BME280;11630;42.660;23.292;2022-09-09T04:53:07;69508.86;;;17.89;100.00
22930;BME280;11630;42.660;23.292;2022-09-09T04:55:38;69526.08;;;18.06;100.00
22930;BME280;11630;42.660;23.292;2022-09-09T04:58:10;69560.97;;;18.17;100.00
22930;BME280;11630;42.660;23.292;2022-09-09T05:00:42;69562.83;;;18.35;100.00
22930;BME280;11630;42.660;23.292;2022-09-09T05:03:13;69583.41;;;18.45;100.00
22930;BME280;11630;42.660;23.292;2022-09-09T05:05:44;69586.36;;;18.58;100.00
22930;BME280;11630;42.660;23.292;2022-09-09T05:08:14;69606.13;;;18.69;100.00
22930;BME280;11630;42.660;23.292;2022-09-09T05:10:45;69610.44;;;18.85;100.00
22930;BME280;11630;42.660;23.292;2022-09-09T05:13:16;69639.00;;;18.99;100.00
22930;BME280;11630;42.660;23.292;2022-09-09T05:18:37;69657.09;;;19.15;100.00
22930;BME280;11630;42.660;23.292;2022-09-09T05:21:08;69633.47;;;19.01;100.00
22930;BME280;11630;42.660;23.292;2022-09-09T05:23:39;69641.42;;;19.07;100.00
22930;BME280;11630;42.660;23.292;2022-09-09T05:26:18;69645.83;;;19.09;100.00
22930;BME280;11630;42.660;23.292;2022-09-09T05:28:48;69663.42;;;19.17;100.00
22930;BME280;11630;42.660;23.292;2022-09-09T05:31:18;69674.08;;;19.33;100.00
22930;BME280;11630;42.660;23.292;2022-09-09T05:33:49;69693.80;;;19.51;100.00
22930;BME280;11630;42.660;23.292;2022-09-09T05:36:24;69657.08;;;19.18;100.00
22930;BME280;11630;42.660;23.292;2022-09-09T05:38:53;69809.81;;;20.57;100.00
22930;BME280;11630;42.660;23.292;2022-09-09T05:41:25;69873.27;;;21.08;100.00
22930;BME280;11630;42.660;23.292;2022-09-09T05:43:55;69813.08;;;20.65;100.00
22930;BME280;11630;42.660;23.292;2022-09-09T05:46:26;69817.56;;;20.57;100.00
22930;BME280;11630;42.660;23.292;2022-09-09T05:48:57;69786.80;;;20.31;100.00
22930;BME280;11630;42.660;23.292;2022-09-09T05:51:28;69791.16;;;20.40;100.00
22930;BME280;11630;42.660;23.292;2022-09-09T05:53:59;69814.23;;;20.56;100.00
22930;BME280;11630;42.660;23.292;2022-09-09T05:56:30;69816.17;;;20.57;100.00
22930;BME280;11630;42.660;23.292;2022-09-09T05:59:01;69813.36;;;20.64;100.00
22930;BME280;11630;42.660;23.292;2022-09-09T06:01:33;69829.03;;;20.72;100.00
22930;BME280;11630;42.660;23.292;2022-09-09T06:04:05;69831.80;;;20.72;100.00
22930;BME280;11630;42.660;23.292;2022-09-09T06:06:39;69824.61;;;20.73;100.00
22930;BME280;11630;42.660;23.292;2022-09-09T06:09:10;69859.22;;;21.02;100.00
22930;BME280;11630;42.660;23.292;2022-09-09T06:11:42;69862.81;;;21.04;100.00
22930;BME280;11630;42.660;23.292;2022-09-09T06:14:12;69859.55;;;20.96;100.00
22930;BME280;11630;42.660;23.292;2022-09-09T06:16:42;69850.72;;;20.93;100.00
22930;BME280;11630;42.660;23.292;2022-09-09T06:19:19;69868.01;;;21.10;100.00
22930;BME280;11630;42.660;23.292;2022-09-09T06:21:51;69885.03;;;21.23;100.00
22930;BME280;11630;42.660;23.292;2022-09-09T06:24:22;69869.67;;;21.09;100.00
22930;BME280;11630;42.660;23.292;2022-09-09T06:26:52;69869.06;;;21.16;100.00
22930;BME280;11630;42.660;23.292;2022-09-09T06:29:23;69844.70;;;20.85;100.00
22930;BME280;11630;42.660;23.292;2022-09-09T06:31:54;69858.16;;;20.96;100.00
22930;BME280;11630;42.660;23.292;2022-09-09T06:34:25;69882.31;;;21.18;100.00
22930;BME280;11630;42.660;23.292;2022-09-09T06:36:54;69867.94;;;21.17;100.00
22930;BME280;11630;42.660;23.292;2022-09-09T06:39:25;69911.91;;;21.50;100.00
22930;BME280;11630;42.660;23.292;2022-09-09T06:41:56;69952.94;;;21.75;100.00
22930;BME280;11630;42.660;23.292;2022-09-09T06:44:27;69991.06;;;22.16;100.00
22930;BME280;11630;42.660;23.292;2022-09-09T06:46:57;70064.05;;;22.66;100.00
22930;BME280;11630;42.660;23.292;2022-09-09T06:49:28;70081.77;;;22.98;100.00
22930;BME280;11630;42.660;23.292;2022-09-09T06:51:59;70142.70;;;23.34;100.00
22930;BME280;11630;42.660;23.292;2022-09-09T06:54:30;70141.35;;;23.61;100.00
22930;BME280;11630;42.660;23.292;2022-09-09T06:57:00;70170.80;;;23.86;100.00
22930;BME280;11630;42.660;23.292;2022-09-09T06:59:31;70208.73;;;23.97;99.29
22930;BME280;11630;42.660;23.292;2022-09-09T07:02:02;70186.60;;;23.89;96.11
22930;BME280;11630;42.660;23.292;2022-09-09T07:04:33;70205.34;;;24.04;100.00
22930;BME280;11630;42.660;23.292;2022-09-09T07:07:04;70204.16;;;24.10;100.00
22930;BME280;11630;42.660;23.292;2022-09-09T07:09:35;70209.08;;;24.17;96.04
22930;BME280;11630;42.660;23.292;2022-09-09T07:12:06;70235.50;;;24.41;95.69
22930;BME280;11630;42.660;23.292;2022-09-09T07:14:36;70169.48;;;23.81;89.50
22930;BME280;11630;42.660;23.292;2022-09-09T07:17:07;70147.55;;;23.51;96.40
22930;BME280;11630;42.660;23.292;2022-09-09T07:19:38;70180.55;;;23.84;97.35
22930;BME280;11630;42.660;23.292;2022-09-09T07:22:09;70199.48;;;24.07;95.65
22930;BME280;11630;42.660;23.292;2022-09-09T07:24:40;70233.41;;;24.26;93.81
22930;BME280;11630;42.660;23.292;2022-09-09T07:27:11;70180.80;;;23.85;91.85
22930;BME280;11630;42.660;23.292;2022-09-09T07:29:42;70238.45;;;24.23;95.10
22930;BME280;11630;42.660;23.292;2022-09-09T07:32:14;70210.87;;;24.06;93.69
22930;BME280;11630;42.660;23.292;2022-09-09T07:34:46;70196.03;;;23.90;94.91
22930;BME280;11630;42.660;23.292;2022-09-09T07:37:18;70197.16;;;24.15;91.07
22930;BME280;11630;42.660;23.292;2022-09-09T07:39:48;70208.09;;;24.06;89.22
22930;BME280;11630;42.660;23.292;2022-09-09T07:42:19;70217.98;;;24.15;89.50
22930;BME280;11630;42.660;23.292;2022-09-09T07:44:51;70251.62;;;24.43;93.58
22930;BME280;11630;42.660;23.292;2022-09-09T07:47:22;70298.73;;;24.79;90.79
22930;BME280;11630;42.660;23.292;2022-09-09T07:49:52;70301.67;;;24.90;88.08
22930;BME280;11630;42.660;23.292;2022-09-09T07:52:23;70256.58;;;24.45;84.32
22930;BME280;11630;42.660;23.292;2022-09-09T07:54:54;70292.39;;;24.75;87.77
22930;BME280;11630;42.660;23.292;2022-09-09T07:57:25;70324.57;;;25.07;84.95
22930;BME280;11630;42.660;23.292;2022-09-09T07:59:57;70343.23;;;25.32;85.44
22930;BME280;11630;42.660;23.292;2022-09-09T08:02:28;70336.16;;;25.18;81.30
22930;BME280;11630;42.660;23.292;2022-09-09T08:04:59;70317.09;;;25.04;86.21
22930;BME280;11630;42.660;23.292;2022-09-09T08:07:28;70331.20;;;25.37;84.83
22930;BME280;11630;42.660;23.292;2022-09-09T08:09:59;70379.95;;;25.56;83.05
22930;BME280;11630;42.660;23.292;2022-09-09T08:12:30;70378.73;;;25.65;80.49
22930;BME280;11630;42.660;23.292;2022-09-09T08:15:02;70341.01;;;25.32;81.04
22930;BME280;11630;42.660;23.292;2022-09-09T08:17:33;70363.61;;;25.50;82.08
22930;BME280;11630;42.660;23.292;2022-09-09T08:20:03;70407.28;;;25.77;80.52
22930;BME280;11630;42.660;23.292;2022-09-09T08:22:35;70365.11;;;25.40;79.81
22930;BME280;11630;42.660;23.292;2022-09-09T08:25:07;70361.52;;;25.38;78.63
22930;BME280;11630;42.660;23.292;2022-09-09T08:27:38;70354.45;;;25.24;79.54
22930;BME280;11630;42.660;23.292;2022-09-09T08:30:10;70353.17;;;25.38;81.98
22930;BME280;11630;42.660;23.292;2022-09-09T08:32:41;70363.38;;;25.46;81.24
22930;BME280;11630;42.660;23.292;2022-09-09T08:35:12;70407.33;;;25.72;82.58
22930;BME280;11630;42.660;23.292;2022-09-09T08:37:43;70383.70;;;25.69;79.12
22930;BME280;11630;42.660;23.292;2022-09-09T08:40:17;70419.13;;;25.89;80.87
22930;BME280;11630;42.660;23.292;2022-09-09T08:42:50;70432.06;;;26.02;79.45
22930;BME280;11630;42.660;23.292;2022-09-09T08:45:37;70432.95;;;25.99;80.03
22930;BME280;11630;42.660;23.292;2022-09-09T08:50:54;70430.84;;;26.11;80.34
22930;BME280;11630;42.660;23.292;2022-09-09T08:53:27;70401.19;;;25.74;75.04
22930;BME280;11630;42.660;23.292;2022-09-09T08:56:12;70411.67;;;25.83;75.99
22930;BME280;11630;42.660;23.292;2022-09-09T08:58:52;70437.28;;;26.08;77.11
22930;BME280;11630;42.660;23.292;2022-09-09T09:01:51;70430.48;;;26.17;74.29
22930;BME280;11630;42.660;23.292;2022-09-09T09:04:46;70427.20;;;25.90;76.17
22930;BME280;11630;42.660;23.292;2022-09-09T09:07:37;70435.95;;;26.03;75.49
22930;BME280;11630;42.660;23.292;2022-09-09T09:12:55;70446.73;;;26.33;74.64
22930;BME280;11630;42.660;23.292;2022-09-09T09:15:30;70484.16;;;26.50;70.66
22930;BME280;11630;42.660;23.292;2022-09-09T09:17:58;70411.91;;;25.87;71.92
22930;BME280;11630;42.660;23.292;2022-09-09T09:20:41;70417.17;;;25.88;73.28
22930;BME280;11630;42.660;23.292;2022-09-09T09:23:13;70452.55;;;26.13;73.40
22930;BME280;11630;42.660;23.292;2022-09-09T09:25:45;70444.06;;;26.23;73.92
22930;BME280;11630;42.660;23.292;2022-09-09T09:28:25;70460.66;;;26.33;73.21
22930;BME280;11630;42.660;23.292;2022-09-09T09:31:00;70465.16;;;26.29;70.99
22930;BME280;11630;42.660;23.292;2022-09-09T09:33:32;70464.30;;;26.32;73.05
22930;BME280;11630;42.660;23.292;2022-09-09T09:36:01;70460.92;;;26.34;72.38
22930;BME280;11630;42.660;23.292;2022-09-09T09:38:32;70489.41;;;26.53;74.36
22930;BME280;11630;42.660;23.292;2022-09-09T09:41:03;70525.81;;;26.86;72.39
22930;BME280;11630;42.660;23.292;2022-09-09T09:43:36;70545.62;;;27.09;67.77
22930;BME280;11630;42.660;23.292;2022-09-09T09:46:18;70563.85;;;27.23;66.45
22930;BME280;11630;42.660;23.292;2022-09-09T09:48:38;70589.61;;;27.37;67.12
22930;BME280;11630;42.660;23.292;2022-09-09T09:51:11;70579.95;;;27.30;67.38
22930;BME280;11630;42.660;23.292;2022-09-09T09:53:44;70555.60;;;27.13;68.41
22930;BME280;11630;42.660;23.292;2022-09-09T09:56:15;70539.88;;;27.00;67.44
22930;BME280;11630;42.660;23.292;2022-09-09T09:58:49;70546.86;;;26.98;68.78
22930;BME280;11630;42.660;23.292;2022-09-09T10:01:26;70560.08;;;27.12;67.39
22930;BME280;11630;42.660;23.292;2022-09-09T10:04:42;70553.14;;;27.10;70.09
22930;BME280;11630;42.660;23.292;2022-09-09T10:06:36;70551.58;;;27.01;65.72
22930;BME280;11630;42.660;23.292;2022-09-09T10:12:02;70526.77;;;26.97;70.37
22930;BME280;11630;42.660;23.292;2022-09-09T10:14:40;70533.07;;;26.85;67.35
22930;BME280;11630;42.660;23.292;2022-09-09T10:17:15;70511.41;;;26.78;71.41
22930;BME280;11630;42.660;23.292;2022-09-09T10:22:36;70479.14;;;26.50;70.24
22930;BME280;11630;42.660;23.292;2022-09-09T10:27:55;70459.97;;;26.44;71.99
22930;BME280;11630;42.660;23.292;2022-09-09T10:30:41;70483.44;;;26.41;71.84
22930;BME280;11630;42.660;23.292;2022-09-09T10:36:21;70467.05;;;26.35;70.25
22930;BME280;11630;42.660;23.292;2022-09-09T10:39:11;70470.48;;;26.28;69.30
22930;BME280;11630;42.660;23.292;2022-09-09T10:41:55;70444.02;;;26.28;70.03
22930;BME280;11630;42.660;23.292;2022-09-09T10:44:36;70450.45;;;26.25;70.10
22930;BME280;11630;42.660;23.292;2022-09-09T10:50:25;70396.22;;;25.69;71.85
22930;BME280;11630;42.660;23.292;2022-09-09T10:55:26;70423.88;;;25.87;72.15
22930;BME280;11630;42.660;23.292;2022-09-09T10:57:58;70405.75;;;25.89;72.99
22930;BME280;11630;42.660;23.292;2022-09-09T11:03:12;70421.80;;;25.99;73.50
22930;BME280;11630;42.660;23.292;2022-09-09T11:05:49;70408.92;;;25.81;76.18
22930;BME280;11630;42.660;23.292;2022-09-09T11:08:19;70409.89;;;25.92;75.81
22930;BME280;11630;42.660;23.292;2022-09-09T11:16:34;70405.31;;;25.79;78.49
22930;BME280;11630;42.660;23.292;2022-09-09T11:19:16;70433.74;;;26.01;78.38
22930;BME280;11630;42.660;23.292;2022-09-09T11:21:49;70449.77;;;26.13;80.38
22930;BME280;11630;42.660;23.292;2022-09-09T11:24:31;70430.95;;;26.01;80.30
22930;BME280;11630;42.660;23.292;2022-09-09T11:27:29;70457.52;;;26.17;79.23
22930;BME280;11630;42.660;23.292;2022-09-09T11:30:15;70434.91;;;26.21;78.89
22930;BME280;11630;42.660;23.292;2022-09-09T11:35:38;70468.70;;;26.36;80.04
22930;BME280;11630;42.660;23.292;2022-09-09T11:38:26;70487.84;;;26.44;80.10
22930;BME280;11630;42.660;23.292;2022-09-09T11:41:01;70488.41;;;26.45;80.35
22930;BME280;11630;42.660;23.292;2022-09-09T11:43:33;70472.06;;;26.34;79.60
22930;BME280;11630;42.660;23.292;2022-09-09T11:46:04;70481.33;;;26.52;79.32
22930;BME280;11630;42.660;23.292;2022-09-09T11:48:36;70478.78;;;26.56;79.24
22930;BME280;11630;42.660;23.292;2022-09-09T11:51:13;70494.27;;;26.65;79.36
22930;BME280;11630;42.660;23.292;2022-09-09T11:53:54;70510.45;;;26.65;78.94
22930;BME280;11630;42.660;23.292;2022-09-09T11:56:30;70476.00;;;26.56;79.31
22930;BME280;11630;42.660;23.292;2022-09-09T11:59:03;70503.77;;;26.64;79.77
22930;BME280;11630;42.660;23.292;2022-09-09T12:01:48;70517.45;;;26.84;79.09
22930;BME280;11630;42.660;23.292;2022-09-09T12:04:22;70556.70;;;27.14;77.23
22930;BME280;11630;42.660;23.292;2022-09-09T12:07:03;70594.58;;;27.42;76.12
22930;BME280;11630;42.660;23.292;2022-09-09T12:12:25;70663.73;;;28.13;73.17
22930;BME280;11630;42.660;23.292;2022-09-09T12:17:48;70719.61;;;28.56;70.15
22930;BME280;11630;42.660;23.292;2022-09-09T12:20:38;70749.16;;;28.83;69.18
22930;BME280;11630;42.660;23.292;2022-09-09T12:23:30;70749.99;;;29.02;68.85
22930;BME280;11630;42.660;23.292;2022-09-09T12:29:14;70758.70;;;29.01;68.04
22930;BME280;11630;42.660;23.292;2022-09-09T12:31:46;70767.89;;;29.03;65.86
22930;BME280;11630;42.660;23.292;2022-09-09T12:34:33;70743.64;;;28.79;66.82
22930;BME280;11630;42.660;23.292;2022-09-09T12:39:55;70784.01;;;29.12;65.04
22930;BME280;11630;42.660;23.292;2022-09-09T12:42:29;70716.85;;;28.53;67.52
22930;BME280;11630;42.660;23.292;2022-09-09T12:45:00;70714.09;;;28.51;68.26
22930;BME280;11630;42.660;23.292;2022-09-09T12:50:30;70743.09;;;28.78;68.24
22930;BME280;11630;42.660;23.292;2022-09-09T12:53:04;70724.33;;;28.59;68.60
22930;BME280;11630;42.660;23.292;2022-09-09T12:55:36;70655.67;;;28.09;70.72
22930;BME280;11630;42.660;23.292;2022-09-09T12:58:06;70690.73;;;28.42;70.12
22930;BME280;11630;42.660;23.292;2022-09-09T13:00:37;70740.30;;;28.78;67.82
22930;BME280;11630;42.660;23.292;2022-09-09T13:03:19;70701.98;;;28.37;69.89
22930;BME280;11630;42.660;23.292;2022-09-09T13:05:53;70710.89;;;28.59;69.01
22930;BME280;11630;42.660;23.292;2022-09-09T13:08:24;70689.84;;;28.26;69.17
22930;BME280;11630;42.660;23.292;2022-09-09T13:11:03;70684.80;;;28.27;69.59
22930;BME280;11630;42.660;23.292;2022-09-09T13:13:40;70691.41;;;28.33;69.69
22930;BME280;11630;42.660;23.292;2022-09-09T13:16:26;70697.28;;;28.34;70.69
22930;BME280;11630;42.660;23.292;2022-09-09T13:19:00;70683.97;;;28.27;70.85
22930;BME280;11630;42.660;23.292;2022-09-09T13:21:38;70655.97;;;28.08;70.31
22930;BME280;11630;42.660;23.292;2022-09-09T13:24:32;70655.72;;;28.07;70.26
22930;BME280;11630;42.660;23.292;2022-09-09T13:27:24;70646.98;;;27.92;70.30
22930;BME280;11630;42.660;23.292;2022-09-09T13:29:37;70650.59;;;27.94;71.35
22930;BME280;11630;42.660;23.292;2022-09-09T13:32:16;70630.73;;;27.76;72.28
22930;BME280;11630;42.660;23.292;2022-09-09T13:34:57;70613.73;;;27.72;72.40
22930;BME280;11630;42.660;23.292;2022-09-09T13:37:40;70579.42;;;27.27;74.12
22930;BME280;11630;42.660;23.292;2022-09-09T13:40:23;70545.45;;;27.00;77.47
22930;BME280;11630;42.660;23.292;2022-09-09T13:42:47;70539.11;;;26.93;76.90
22930;BME280;11630;42.660;23.292;2022-09-09T13:45:21;70541.83;;;26.98;77.15
22930;BME280;11630;42.660;23.292;2022-09-09T13:47:51;70545.19;;;27.20;75.91
22930;BME280;11630;42.660;23.292;2022-09-09T13:50:26;70581.06;;;27.28;75.03
22930;BME280;11630;42.660;23.292;2022-09-09T13:52:58;70579.98;;;27.27;74.98
22930;BME280;11630;42.660;23.292;2022-09-09T13:55:29;70550.70;;;27.04;77.36
22930;BME280;11630;42.660;23.292;2022-09-09T13:58:03;70544.56;;;27.03;77.71
22930;BME280;11630;42.660;23.292;2022-09-09T14:00:35;70563.39;;;27.15;77.75
22930;BME280;11630;42.660;23.292;2022-09-09T14:03:06;70613.00;;;27.65;75.61
22930;BME280;11630;42.660;23.292;2022-09-09T14:05:36;70650.42;;;28.06;74.44
22930;BME280;11630;42.660;23.292;2022-09-09T14:08:07;70656.05;;;28.03;73.21
22930;BME280;11630;42.660;23.292;2022-09-09T14:10:38;70665.22;;;28.05;72.45
22930;BME280;11630;42.660;23.292;2022-09-09T14:13:09;70639.03;;;27.81;73.49
22930;BME280;11630;42.660;23.292;2022-09-09T14:15:40;70702.80;;;28.39;69.81
22930;BME280;11630;42.660;23.292;2022-09-09T14:18:11;70686.48;;;28.26;69.45
22930;BME280;11630;42.660;23.292;2022-09-09T14:20:42;70669.69;;;28.07;70.79
22930;BME280;11630;42.660;23.292;2022-09-09T14:23:13;70640.65;;;27.85;72.60
22930;BME280;11630;42.660;23.292;2022-09-09T14:25:44;70637.08;;;27.80;73.02
22930;BME280;11630;42.660;23.292;2022-09-09T14:28:14;70609.98;;;27.61;74.00
22930;BME280;11630;42.660;23.292;2022-09-09T14:30:45;70614.92;;;27.68;74.06
22930;BME280;11630;42.660;23.292;2022-09-09T14:33:16;70623.97;;;27.80;72.96
22930;BME280;11630;42.660;23.292;2022-09-09T14:35:47;70693.96;;;28.31;70.60
22930;BME280;11630;42.660;23.292;2022-09-09T14:38:18;70711.63;;;28.47;70.15
22930;BME280;11630;42.660;23.292;2022-09-09T14:40:49;70784.26;;;29.14;66.52